createdAt,value
2023-01-31T00:02:42.700Z,18.88
2023-01-31T00:07:40.881Z,16.38
2023-01-31T00:12:39.160Z,18.67
2023-01-31T00:17:37.295Z,17.17
2023-01-31T00:22:37.176Z,16.92
2023-01-31T00:27:35.705Z,17.63
2023-01-31T00:32:34.895Z,16.75
2023-01-31T00:37:33.165Z,18.10
2023-01-31T00:42:32.690Z,18.10
2023-01-31T00:47:30.824Z,16.05
2023-01-31T00:52:29.113Z,16.67
2023-01-31T00:57:28.201Z,50.92
2023-01-31T01:02:27.824Z,17.58
2023-01-31T01:07:26.060Z,17.70
2023-01-31T01:12:24.526Z,35.55
2023-01-31T01:17:22.673Z,17.70
2023-01-31T01:22:22.282Z,36.80
2023-01-31T01:27:20.459Z,59.35
2023-01-31T01:32:18.657Z,29.42
2023-01-31T01:37:20.264Z,42.78
2023-01-31T01:42:20.880Z,20.15
2023-01-31T01:47:24.317Z,37.83
2023-01-31T01:52:23.177Z,33.70
2023-01-31T01:57:25.237Z,32.83
2023-01-31T02:02:23.558Z,31.33
2023-01-31T02:07:21.774Z,24.25
2023-01-31T02:12:19.926Z,42.28
2023-01-31T02:17:20.478Z,28.13
2023-01-31T02:22:21.424Z,44.28
2023-01-31T02:27:28.363Z,25.23
2023-01-31T02:32:42.209Z,44.58
2023-01-31T02:37:45.707Z,35.50
2023-01-31T02:42:49.018Z,27.80
2023-01-31T02:47:52.888Z,25.48
2023-01-31T02:52:54.085Z,21.80
2023-01-31T02:57:52.809Z,24.38
2023-01-31T03:02:52.377Z,20.77
2023-01-31T03:07:53.890Z,18.40
2023-01-31T03:12:58.617Z,18.95
2023-01-31T03:18:01.837Z,19.40
2023-01-31T03:23:03.010Z,18.42
2023-01-31T03:28:03.196Z,18.60
2023-01-31T03:33:07.179Z,19.35
2023-01-31T03:38:07.023Z,19.33
2023-01-31T03:43:10.459Z,19.38
2023-01-31T03:48:14.485Z,18.90
2023-01-31T03:53:17.216Z,20.98
2023-01-31T03:58:16.831Z,25.60
2023-01-31T04:03:19.035Z,26.50
2023-01-31T04:08:19.701Z,23.23
2023-01-31T04:13:25.195Z,18.83
2023-01-31T04:18:24.881Z,20.00
2023-01-31T04:23:25.055Z,22.00
2023-01-31T04:28:23.284Z,18.52
2023-01-31T04:33:21.541Z,22.65
2023-01-31T04:38:21.071Z,20.17
2023-01-31T04:43:19.338Z,20.95
2023-01-31T04:48:17.525Z,20.38
2023-01-31T04:53:15.865Z,19.15
2023-01-31T04:58:15.373Z,27.88
2023-01-31T05:03:13.680Z,24.75
2023-01-31T05:08:11.858Z,20.70
2023-01-31T05:13:10.024Z,21.60
2023-01-31T05:18:09.573Z,21.20
2023-01-31T05:23:07.722Z,23.55
2023-01-31T05:28:06.024Z,28.88
2023-01-31T05:33:04.499Z,24.00
2023-01-31T05:38:04.077Z,19.67
2023-01-31T05:43:02.285Z,18.63
2023-01-31T05:48:01.194Z,19.20
2023-01-31T05:53:00.958Z,19.27
2023-01-31T05:58:01.550Z,23.60
2023-01-31T06:03:00.171Z,25.40
2023-01-31T06:07:58.954Z,21.65
2023-01-31T06:12:57.333Z,19.15
2023-01-31T06:17:56.880Z,18.13
2023-01-31T06:22:55.118Z,18.48
2023-01-31T06:27:53.251Z,24.15
2023-01-31T06:32:51.351Z,19.73
2023-01-31T06:37:50.892Z,33.22
2023-01-31T06:42:49.042Z,22.33
2023-01-31T06:47:47.370Z,18.58
2023-01-31T06:52:45.551Z,17.58
2023-01-31T06:57:48.860Z,19.05
2023-01-31T07:02:47.069Z,20.88
2023-01-31T07:07:45.232Z,19.65
2023-01-31T07:12:43.364Z,19.42
2023-01-31T07:17:44.216Z,31.67
2023-01-31T07:22:42.405Z,47.92
2023-01-31T07:27:40.601Z,39.10
2023-01-31T07:32:39.679Z,47.05
2023-01-31T07:37:39.495Z,40.17
2023-01-31T08:00:29.974Z,24.50
2023-01-31T08:05:28.150Z,21.95
2023-01-31T08:10:26.554Z,31.35
2023-01-31T08:15:26.474Z,21.65
2023-01-31T08:20:24.656Z,24.75
2023-01-31T08:25:23.204Z,24.48
2023-01-31T08:30:21.818Z,40.67
2023-01-31T08:35:21.857Z,32.63
2023-01-31T08:40:20.315Z,29.60
2023-01-31T08:45:19.111Z,32.95
2023-01-31T08:50:27.189Z,36.88
2023-01-31T08:55:27.379Z,46.10
2023-01-31T09:00:25.582Z,32.15
2023-01-31T09:05:25.120Z,28.77
2023-01-31T09:10:24.741Z,27.27
2023-01-31T09:15:24.462Z,25.10
2023-01-31T09:20:22.661Z,23.35
2023-01-31T09:25:30.396Z,31.52
2023-01-31T09:30:37.436Z,29.93
2023-01-31T09:35:37.355Z,29.10
2023-01-31T09:40:37.188Z,27.50
2023-01-31T09:45:36.651Z,29.92
2023-01-31T09:50:37.876Z,31.95
2023-01-31T09:55:39.337Z,40.60
2023-01-31T10:00:40.644Z,33.13
2023-01-31T10:05:44.354Z,25.92
2023-01-31T10:10:49.329Z,29.05
2023-01-31T10:15:49.477Z,29.55
2023-01-31T10:20:50.981Z,24.63
2023-01-31T10:25:51.357Z,23.42
2023-01-31T10:30:52.373Z,20.25
2023-01-31T10:35:53.434Z,22.42
2023-01-31T10:40:54.461Z,26.10
2023-01-31T10:45:52.645Z,25.48
2023-01-31T10:50:58.036Z,23.55
2023-01-31T10:56:00.518Z,22.58
2023-01-31T11:00:58.930Z,24.92
2023-01-31T11:05:59.038Z,24.27
2023-01-31T11:10:58.032Z,21.15
2023-01-31T11:15:56.763Z,22.40
2023-01-31T11:20:55.128Z,28.02
2023-01-31T11:25:55.122Z,30.65
2023-01-31T11:30:54.843Z,32.25
2023-01-31T11:35:53.162Z,24.42
2023-01-31T11:40:51.367Z,23.48
2023-01-31T11:45:55.890Z,19.02
2023-01-31T11:50:55.833Z,18.00
2023-01-31T11:55:55.505Z,26.27
2023-01-31T12:00:56.898Z,21.10
2023-01-31T12:06:01.060Z,18.95
2023-01-31T12:10:59.644Z,25.52
2023-01-31T12:16:02.872Z,20.50
2023-01-31T12:21:04.949Z,40.80
2023-01-31T12:26:07.660Z,26.00
2023-01-31T12:31:17.905Z,23.98
2023-01-31T12:36:23.940Z,20.17
2023-01-31T12:41:26.308Z,70.72
2023-01-31T12:46:31.130Z,28.17
2023-01-31T12:51:40.203Z,26.25
2023-01-31T12:56:42.891Z,26.13
2023-01-31T13:01:45.745Z,20.85
2023-01-31T13:06:45.145Z,15.60
2023-01-31T13:11:45.389Z,14.05
2023-01-31T13:16:45.938Z,18.60
2023-01-31T13:21:45.986Z,18.33
2023-01-31T13:26:45.365Z,50.38
2023-01-31T13:31:47.184Z,67.95
2023-01-31T13:36:46.907Z,28.15
2023-01-31T13:41:45.144Z,31.77
2023-01-31T13:46:46.813Z,23.08
2023-01-31T13:51:47.708Z,31.23
2023-01-31T13:56:48.901Z,40.53
2023-01-31T14:01:49.408Z,23.70
2023-01-31T14:07:14.389Z,37.25
2023-01-31T14:12:36.213Z,26.42
2023-01-31T14:17:55.039Z,34.17
2023-01-31T14:23:08.160Z,33.13
2023-01-31T14:28:11.558Z,34.50
2023-01-31T14:33:24.598Z,36.58
2023-01-31T14:38:25.803Z,27.63
2023-01-31T14:43:32.746Z,24.70
2023-01-31T14:48:47.988Z,28.88
2023-01-31T14:54:09.672Z,34.13
2023-01-31T14:59:22.914Z,63.53
2023-01-31T15:04:22.403Z,46.70
2023-01-31T15:09:29.015Z,69.15
2023-01-31T15:14:36.014Z,175.43
2023-01-31T15:19:37.276Z,84.80
2023-01-31T15:24:36.666Z,197.00
2023-01-31T15:29:46.166Z,469.30
2023-01-31T15:34:48.337Z,233.52
2023-01-31T15:39:52.617Z,149.00
2023-01-31T15:44:52.189Z,84.07
2023-01-31T15:49:50.873Z,96.57
2023-01-31T15:54:52.478Z,94.88
2023-01-31T15:59:52.173Z,70.30
2023-01-31T16:04:50.350Z,61.63
2023-01-31T16:09:49.198Z,57.95
2023-01-31T16:14:48.915Z,92.32
2023-01-31T16:19:50.382Z,62.60
2023-01-31T16:24:53.382Z,65.15
2023-01-31T16:29:52.657Z,88.35
2023-01-31T16:34:56.519Z,160.40
2023-01-31T16:40:00.351Z,155.30
2023-01-31T16:44:58.881Z,86.18
2023-01-31T16:50:24.710Z,44.53
2023-01-31T16:55:27.850Z,77.53
2023-01-31T17:00:36.060Z,69.32
2023-01-31T17:05:40.236Z,160.80
2023-01-31T17:10:41.165Z,101.83
2023-01-31T17:15:41.633Z,100.72
2023-01-31T17:20:42.963Z,80.75
2023-01-31T17:25:42.854Z,89.25
2023-01-31T17:30:42.196Z,78.30
2023-01-31T17:35:40.989Z,198.43
2023-01-31T17:40:41.153Z,33.58
2023-01-31T17:45:40.518Z,67.35
2023-01-31T17:50:38.669Z,33.08
2023-01-31T17:55:37.024Z,43.33
2023-01-31T18:00:37.585Z,36.05
2023-01-31T18:05:41.419Z,35.60
2023-01-31T18:10:39.787Z,43.25
2023-01-31T18:15:40.166Z,62.63
2023-01-31T18:20:39.261Z,35.05
2023-01-31T18:25:40.794Z,33.70
2023-01-31T18:30:40.437Z,36.83
2023-01-31T18:35:38.563Z,26.42
2023-01-31T18:40:36.696Z,32.85
2023-01-31T18:45:34.892Z,24.35
2023-01-31T18:50:35.517Z,21.13
2023-01-31T18:55:33.921Z,21.30
2023-01-31T19:00:34.691Z,30.08
2023-01-31T19:05:34.183Z,25.40
2023-01-31T19:10:32.553Z,26.80
2023-01-31T19:15:30.660Z,20.13
2023-01-31T19:20:28.811Z,25.27
2023-01-31T19:25:28.351Z,20.08
2023-01-31T19:30:26.520Z,26.13
2023-01-31T19:35:24.677Z,21.15
2023-01-31T19:40:23.028Z,23.42
2023-01-31T19:45:22.954Z,27.95
2023-01-31T19:50:21.458Z,36.85
2023-01-31T19:55:20.035Z,27.33
2023-01-31T20:00:18.821Z,29.70
2023-01-31T20:05:18.434Z,49.05
2023-01-31T20:10:16.921Z,34.38
2023-01-31T20:15:15.080Z,15.57
2023-01-31T20:20:13.328Z,30.33
2023-01-31T20:25:13.060Z,21.38
2023-01-31T20:30:12.051Z,21.05
2023-01-31T20:35:10.661Z,14.48
2023-01-31T20:40:09.307Z,14.90
2023-01-31T20:45:09.516Z,14.25
2023-01-31T20:50:10.502Z,16.00
2023-01-31T20:55:09.207Z,42.60
2023-01-31T21:00:10.820Z,21.88
2023-01-31T21:05:09.338Z,45.25
2023-01-31T21:10:08.216Z,110.88
2023-01-31T21:15:07.000Z,48.92
2023-01-31T21:20:07.851Z,39.22
2023-01-31T21:25:06.509Z,147.52
2023-01-31T21:30:05.023Z,53.85
2023-01-31T21:35:04.361Z,24.85
2023-01-31T21:40:03.853Z,230.57
2023-01-31T21:45:02.155Z,157.13
2023-01-31T21:50:00.301Z,139.68
2023-01-31T21:54:58.849Z,83.95
2023-01-31T21:59:58.411Z,49.20
2023-01-31T22:04:56.598Z,94.07
2023-01-31T22:09:54.725Z,151.60
2023-01-31T22:14:52.930Z,73.72
2023-01-31T22:19:52.443Z,37.72
2023-01-31T22:24:50.593Z,41.15
2023-01-31T22:29:48.696Z,21.63
2023-01-31T22:34:46.819Z,22.42
2023-01-31T22:39:46.349Z,21.20
2023-01-31T22:44:44.514Z,17.38
2023-01-31T22:49:43.956Z,14.70
2023-01-31T22:54:42.074Z,15.32
2023-01-31T22:59:41.531Z,15.05
2023-01-31T23:04:39.855Z,13.75
2023-01-31T23:09:38.121Z,13.05
2023-01-31T23:14:36.262Z,15.20
2023-01-31T23:19:37.838Z,12.65
2023-01-31T23:24:36.189Z,12.45
2023-01-31T23:29:34.295Z,13.20
2023-01-31T23:34:32.439Z,13.25
2023-01-31T23:39:32.109Z,12.15
2023-01-31T23:44:30.238Z,10.52
2023-01-31T23:49:28.405Z,13.10
2023-01-31T23:54:26.834Z,10.93
2023-01-31T23:59:26.475Z,11.68
